Latest Coastal Weather Observations for Portland Airport

IDS60701

Issued at 9:11 pm CST Sunday 1 May 2016 (issued every 10 minutes, with the page automatically refreshed every 10 minutes)

About coastal observations | Map of coastal stations | Coastal observations for SA | Marine services | Other Formats
Station Details ID: 090171 Name: CASHMORE AIRPORT Lat: -38.31 Lon: 141.47 Height: 80.9 m
Data from the previous 72 hours. | See also: Recent months at Portland Airport
Date/Time
CST
Temp

°C
Wind Pressure Rain
since 9am
mm
Weather Cloud Vis
km
Sea
Height
m
Swell
Dir
 
Speed
knots
Gust
knots
hPa Trend Height
m
Period
s
Dir
01/09:00pm 9.4 NNW 9 14 1014.7 - 1.0 - Partly cloudy 10 - - - -
01/08:30pm 9.3 NNW 8 11 1014.5 - 0.8 - Cloudy 10 - - - -
01/08:00pm 9.9 NNW 7 10 1014.5 - 0.8 - Partly cloudy 10 - - - -
01/07:30pm 11.3 WNW 8 10 1014.5 - 0.8 - Partly cloudy 10 - - - -
01/07:00pm 10.9 W 9 14 1014.5 - 0.6 - Partly cloudy 10 - - - -
01/06:30pm 9.6 NNW 5 7 1014.3 - 0.4 - Partly cloudy 10 - - - -
01/06:00pm 10.4 NW 6 9 1014.2 - 0.4 - - 10 - - - -
01/05:30pm 11.1 WNW 11 15 1014.0 - 0.4 - Partly cloudy 10 - - - -
01/05:00pm 12.4 WSW 12 15 1013.8 - 0.4 - Partly cloudy 10 - - - -
01/04:30pm 12.7 WSW 14 19 1013.6 - 0.4 - Partly cloudy 10 - - - -
01/04:00pm 13.6 W 16 22 1013.4 - 0.4 - Partly cloudy 10 - - - -
01/03:30pm 14.1 WSW 16 24 1013.1 - 0.4 - - 10 - - - -
01/03:08pm 14.1 WSW 16 26 1012.6 - 0.4 - Partly cloudy 10 - - - -
01/03:00pm 13.5 WSW 17 23 1012.7 - 0.4 - Partly cloudy 10 - - - -
01/02:40pm 14.2 WSW 20 30 1012.4 - 0.4 - Partly cloudy 10 - - - -
01/02:30pm 14.5 W 19 26 1012.3 - 0.4 - Partly cloudy 10 - - - -
01/02:03pm 13.0 WSW 19 29 1012.0 - 0.4 - Partly cloudy 10 - - - -
01/02:00pm 13.5 WSW 20 29 1012.0 - 0.4 - Partly cloudy 10 - - - -
01/01:30pm 14.5 WSW 19 30 1011.5 - 0.4 - Partly cloudy 10 - - - -
01/01:28pm 14.1 WSW 20 30 1011.5 - 0.4 - Partly cloudy 10 - - - -
01/01:00pm 14.6 WSW 20 29 1011.3 - 0.4 - Partly cloudy 10 - - - -
01/12:30pm 14.9 WSW 19 29 1011.2 - 0.4 - Partly cloudy 10 - - - -
01/12:03pm 13.1 WSW 15 27 1011.1 - 0.4 - Partly cloudy 10 - - - -
01/12:00pm 12.4 WSW 14 20 1011.2 - 0.4 - Partly cloudy 10 - - - -
01/11:45am 14.6 WSW 18 28 1010.9 - 0.2 - Partly cloudy 10 - - - -
01/11:30am 13.3 WSW 14 21 1010.8 - 0.2 Recent precip. Cloudy 10 - - - -
01/11:00am 11.6 WSW 15 30 1010.8 - 0.2 - Partly cloudy 10 - - - -
01/10:51am 13.5 WSW 19 30 1010.5 - 0.0 - Partly cloudy 10 - - - -
01/10:30am 13.1 WSW 17 25 1010.2 - 0.0 - Partly cloudy 10 - - - -
01/10:00am 12.6 WSW 19 29 1009.5 - 0.0 - Partly cloudy 10 - - - -
01/09:36am 12.5 WSW 19 30 1009.0 - 0.0 - Partly cloudy 10 - - - -
01/09:30am 12.5 WSW 17 24 1008.8 - 0.0 - Partly cloudy 10 - - - -
01/09:10am 12.6 WSW 16 26 1008.4 - 0.0 - Partly cloudy 10 - - - -
01/09:00am 12.2 WSW 14 24 1008.3 - 0.0 - Partly cloudy 10 - - - -
01/08:54am 12.1 WSW 15 25 1008.3 - 0.0 - Partly cloudy 10 - - - -
01/08:30am 11.1 WNW 13 21 1007.5 - 11.2 Rain Cloudy 10 - - - -
01/08:00am 10.2 W 19 27 1007.2 - 11.0 - Partly cloudy 10 - - - -
01/07:41am 10.3 W 15 26 1006.7 - 10.6 - Partly cloudy 10 - - - -
01/07:30am 10.1 W 13 18 1006.5 - 10.6 - Partly cloudy 10 - - - -
01/07:10am 10.1 W 13 19 1006.1 - 9.8 - Partly cloudy 9 - - - -
01/07:00am 10.0 W 14 19 1005.9 - 9.0 - Partly cloudy 6 - - - -
01/06:46am 10.4 W 15 25 1005.5 - 7.6 - Partly cloudy 4 - - - -
01/06:44am 11.1 WSW 13 25 1005.5 - 6.8 - Partly cloudy 6 - - - -
01/06:30am 12.1 WSW 13 17 1004.4 - 5.4 - Partly cloudy 10 - - - -
01/06:00am 11.7 WSW 12 17 1003.8 - 5.4 - Partly cloudy 10 - - - -
01/05:30am 11.9 WSW 15 22 1003.5 - 5.2 - Cloudy 10 - - - -
01/05:07am 12.4 WSW 16 26 1003.0 - 5.2 - Partly cloudy 10 - - - -
01/05:00am 12.3 WSW 17 25 1002.7 - 5.2 - Partly cloudy 10 - - - -
01/04:30am 11.8 WSW 16 26 1002.4 - 5.2 - Partly cloudy 10 - - - -
01/04:15am 11.9 W 16 27 1002.1 - 5.2 - Partly cloudy 10 - - - -
01/04:04am 12.0 W 17 26 1001.8 - 5.2 - Partly cloudy 10 - - - -
01/04:03am 11.9 W 16 26 1001.8 - 5.2 - Partly cloudy 10 - - - -
01/04:00am 11.8 W 16 20 1001.7 - 5.2 - Partly cloudy 10 - - - -
01/03:51am 11.5 W 17 24 1001.6 - 5.2 - Partly cloudy 10 - - - -
01/03:45am 11.7 W 15 21 1001.6 - 5.2 - Partly cloudy 9 - - - -
01/03:36am 10.8 W 18 28 1001.6 - 4.6 - Partly cloudy 7 - - - -
01/03:34am 10.9 W 19 28 1001.5 - 4.6 - Partly cloudy 6 - - - -
01/03:30am 11.8 W 20 27 1001.4 - 4.2 - Partly cloudy 6 - - - -
01/03:29am 11.8 W 20 27 1001.4 - 4.0 - Partly cloudy 6 - - - -
01/03:23am 11.4 W 19 27 1001.1 - 3.8 - Partly cloudy 9 - - - -
01/03:07am 12.5 W 18 28 1000.6 - 3.0 - Partly cloudy 6 - - - -
01/03:05am 12.4 W 19 28 1000.7 - 2.8 - Partly cloudy 6 - - - -
01/03:00am 12.8 WNW 18 27 1000.8 - 2.4 - Partly cloudy 10 - - - -
01/02:30am 12.9 W 19 27 1000.4 - 2.0 Recent precip. Cloudy 10 - - - -
01/02:23am 12.9 W 22 32 1000.4 - 2.0 - Partly cloudy 10 - - - -
01/02:20am 12.8 W 23 32 1000.4 - 2.0 - Partly cloudy 10 - - - -
01/02:12am 12.5 WNW 23 33 1000.3 - 2.0 - Partly cloudy 10 - - - -
01/02:11am 12.5 WNW 24 33 1000.2 - 2.0 - Partly cloudy 10 - - - -
01/02:00am 12.5 WNW 27 38 1000.4 - 2.0 - Partly cloudy 5 - - - -
01/01:58am 12.9 WNW 26 38 1000.5 - 2.0 - Partly cloudy 4 - - - -
01/01:55am 13.2 WNW 25 38 1000.2 - 2.0 - Partly cloudy 4 - - - -
01/01:51am 13.7 NW 23 34 1000.1 - 2.0 - Partly cloudy 6 - - - -
01/01:34am 14.2 NW 26 39 1000.0 - 1.2 - Partly cloudy 10 - - - -
01/01:30am 14.3 NW 23 39 999.9 - 1.2 - Partly cloudy 10 - - - -
01/01:29am 14.3 NW 22 35 999.9 - 1.2 - Partly cloudy 10 - - - -
01/01:23am 14.6 WNW 20 29 999.5 - 1.2 - Partly cloudy 6 - - - -
01/01:15am 16.1 NW 15 28 999.7 - 0.2 - Partly cloudy 10 - - - -
01/01:00am 17.1 NNW 14 19 999.8 - 0.0 - Partly cloudy 10 - - - -
01/12:30am 17.6 NNW 13 21 1000.3 - 0.0 - Partly cloudy 10 - - - -
01/12:00am 17.2 NNW 13 19 1000.5 - 0.0 - Partly cloudy 10 - - - -
 
Date/Time
CST
Temp

°C
Wind Pressure Rain
since 9am
mm
Weather Cloud Vis
km
Sea
Height
m
Swell
Dir
 
Speed
knots
Gust
knots
hPa Trend Height
m
Period
s
Dir
30/11:30pm 17.3 NNW 12 16 1000.8 - 0.0 - Cloudy 10 - - - -
30/11:00pm 15.7 NNW 8 11 1001.2 - 0.0 - Partly cloudy 10 - - - -
30/10:30pm 16.2 N 11 17 1001.6 - 0.0 - Partly cloudy 10 - - - -
30/10:00pm 14.1 N 7 9 1002.3 - 0.0 - Partly cloudy 10 - - - -
30/09:30pm 13.9 NNE 7 8 1002.9 - 0.0 - Partly cloudy 10 - - - -
30/09:00pm 14.6 NNE 7 9 1004.0 - 0.0 - Partly cloudy 10 - - - -
30/08:30pm 15.4 N 8 9 1004.4 - 0.0 - - 10 - - - -
30/08:00pm 14.4 NNW 6 7 1004.8 - 0.0 - Partly cloudy 10 - - - -
30/07:30pm 14.0 N 5 7 1005.0 - 0.0 - - 10 - - - -
30/07:00pm 15.3 NNE 5 6 1005.3 - 0.0 - - 10 - - - -
30/06:30pm 14.4 N 4 5 1005.6 - 0.0 - - 10 - - - -
30/06:00pm 14.6 NNW 4 4 1005.6 - 0.0 - - 10 - - - -
30/05:30pm 16.4 NNW 4 5 1005.7 - 0.0 - - 10 - - - -
30/05:00pm 18.9 N 6 9 1005.9 - 0.0 - - 10 - - - -
30/04:30pm 20.5 NNW 10 16 1006.2 - 0.0 - - 10 - - - -
30/04:00pm 21.1 NNW 13 21 1006.4 - 0.0 - - 10 - - - -
30/03:30pm 21.2 NNW 14 23 1006.7 - 0.0 - - 10 - - - -
30/03:00pm 21.2 NNW 13 19 1007.0 - 0.0 - Partly cloudy 10 - - - -
30/02:30pm 21.3 NNW 14 20 1007.2 - 0.0 - Mostly clear 10 - - - -
30/02:00pm 21.5 NNW 14 22 1007.5 - 0.0 - - 10 - - - -
30/01:30pm 21.1 NNW 15 24 1007.9 - 0.0 - - 10 - - - -
30/01:00pm 20.9 NNW 14 24 1008.3 - 0.0 - - 10 - - - -
30/12:30pm 20.4 NNW 13 17 1009.1 - 0.0 - Partly cloudy 10 - - - -
30/12:00pm 19.6 NW 15 23 1009.6 - 0.0 - - 10 - - - -
30/11:30am 19.6 NNW 15 23 1010.0 - 0.0 - - 10 - - - -
30/11:00am 19.2 NNW 13 20 1010.3 - 0.0 - - 10 - - - -
30/10:30am 18.9 NNW 12 19 1010.5 - 0.0 - - 10 - - - -
30/10:00am 17.8 NNW 14 21 1010.5 - 0.0 - - 10 - - - -
30/09:30am 17.3 NNW 12 19 1010.7 - 0.0 - - 10 - - - -
30/09:00am 16.7 NNW 10 14 1011.0 - 0.0 - - 10 - - - -
30/08:30am 15.3 NNW 10 13 1011.1 - 6.0 - - 10 - - - -
30/08:00am 13.9 N 8 11 1011.4 - 6.0 - - 10 - - - -
30/07:30am 12.7 NNW 7 9 1011.2 - 6.0 - - 10 - - - -
30/07:00am 12.0 NNW 6 7 1010.9 - 6.0 - - 10 - - - -
30/06:30am 12.0 N 6 8 1010.6 - 6.0 - - 10 - - - -
30/06:00am 12.5 NNW 7 9 1010.8 - 5.8 - - 10 - - - -
30/05:30am 12.9 NNW 7 9 1010.8 - 5.8 - - 10 - - - -
30/05:00am 12.9 N 7 9 1010.7 - 5.8 - - 10 - - - -
30/04:30am 13.2 N 8 11 1010.6 - 5.8 - - 10 - - - -
30/04:00am 13.2 N 8 10 1010.5 - 5.8 - Partly cloudy 10 - - - -
30/03:30am 13.0 N 7 9 1010.3 - 5.8 - - 10 - - - -
30/03:00am 12.6 N 7 9 1010.4 - 5.8 - - 10 - - - -
30/02:30am 12.7 N 7 9 1010.5 - 5.8 Recent precip. - 10 - - - -
30/02:00am 12.3 N 6 9 1010.7 - 5.6 - - 10 - - - -
30/01:30am 12.6 N 7 10 1010.9 - 5.6 - - 10 - - - -
30/01:00am 12.4 N 8 10 1011.1 - 5.6 - - 10 - - - -
30/12:30am 12.2 N 8 10 1011.1 - 5.6 - - 10 - - - -
30/12:00am 12.0 N 7 9 1011.2 - 5.6 - - 10 - - - -
 
Date/Time
CST
Temp

°C
Wind Pressure Rain
since 9am
mm
Weather Cloud Vis
km
Sea
Height
m
Swell
Dir
 
Speed
knots
Gust
knots
hPa Trend Height
m
Period
s
Dir
29/11:30pm 12.0 N 6 9 1011.4 - 5.6 - - 10 - - - -
29/11:00pm 12.4 N 6 8 1011.7 - 5.6 - - 10 - - - -
29/10:30pm 12.5 N 7 9 1012.0 - 5.6 - - 10 - - - -
29/10:00pm 12.5 N 7 9 1012.3 - 5.6 - - 10 - - - -
29/09:30pm 12.5 N 5 7 1012.4 - 5.4 - Partly cloudy 10 - - - -
29/09:00pm 12.8 N 5 6 1012.3 - 5.4 - - 10 - - - -
29/08:30pm 13.5 N 7 9 1012.1 - 5.4 - - 10 - - - -
29/08:00pm 13.4 N 6 7 1011.9 - 5.4 - - 10 - - - -
29/07:30pm 13.5 N 5 6 1011.9 - 5.4 - - 10 - - - -
29/07:00pm 13.9 NNE 6 8 1011.8 - 5.4 - - 10 - - - -
29/06:30pm 14.0 N 5 6 1011.8 - 5.4 - - 10 - - - -
29/06:00pm 14.3 NNW 5 6 1011.5 - 5.4 - - 10 - - - -
29/05:30pm 15.2 NW 5 6 1011.2 - 5.4 - - 10 - - - -
29/05:00pm 17.1 NNW 7 9 1010.9 - 5.4 - - 10 - - - -
29/04:30pm 17.9 NNW 8 11 1010.8 - 5.4 - Partly cloudy 10 - - - -
29/04:00pm 18.4 NW 9 13 1010.5 - 5.4 - - 10 - - - -
29/03:30pm 18.7 NW 13 19 1010.6 - 5.4 - Partly cloudy 10 - - - -
29/03:00pm 18.9 NNW 11 15 1010.4 - 5.4 - - 10 - - - -
29/02:30pm 19.0 NW 13 21 1010.0 - 5.4 - - 10 - - - -
29/02:00pm 18.3 NNW 11 15 1010.1 - 5.4 - Partly cloudy 10 - - - -
29/01:30pm 17.6 NNW 14 18 1010.0 - 5.4 - Partly cloudy 10 - - - -
29/01:00pm 16.8 NNW 12 19 1010.0 - 5.4 - Partly cloudy 10 - - - -
29/12:30pm 15.4 NNW 12 20 1010.3 - 5.4 - Partly cloudy 10 - - - -
29/12:00pm 15.2 NNW 12 18 1010.5 - 5.4 - Partly cloudy 10 - - - -
29/11:30am 15.1 NNW 10 15 1010.7 - 5.2 Rain Cloudy 10 - - - -
29/11:00am 15.0 NNW 12 17 1011.2 - 4.6 - Partly cloudy 10 - - - -
29/10:30am 14.9 NNW 11 18 1011.4 - 3.8 - Partly cloudy 10 - - - -
29/10:00am 15.1 NNW 11 17 1011.4 - 2.6 - Partly cloudy 10 - - - -
29/09:30am 15.3 NNW 15 21 1011.5 - 1.4 - Partly cloudy 10 - - - -
29/09:00am 15.5 NNW 13 18 1011.4 - 0.4 - Partly cloudy 10 - - - -
29/08:30am 15.9 NNW 13 19 1011.6 - 6.4 Rain Mostly cloudy 10 - - - -
29/08:00am 15.8 NNW 13 17 1011.3 - 6.2 - Cloudy 10 - - - -
29/07:30am 16.3 NNW 13 18 1011.3 - 6.2 - Cloudy 10 - - - -
29/07:00am 17.0 NNW 11 16 1011.2 - 6.2 - Partly cloudy 10 - - - -
29/06:30am 16.9 NNW 13 19 1011.0 - 6.2 - Partly cloudy 10 - - - -
29/06:00am 16.9 N 13 18 1011.0 - 6.2 - Cloudy 10 - - - -
29/05:30am 17.1 N 11 16 1011.3 - 6.0 - Cloudy 10 - - - -
29/05:00am 16.3 N 11 17 1011.4 - 6.0 - Partly cloudy 10 - - - -
29/04:30am 15.9 N 9 11 1011.4 - 6.0 - Partly cloudy 10 - - - -
29/04:00am 15.8 NNW 9 12 1011.7 - 6.0 - Partly cloudy 10 - - - -
29/03:30am 15.4 N 6 9 1011.1 - 5.0 - Partly cloudy 10 - - - -
29/03:00am 15.6 N 7 9 1011.0 - 4.8 - Cloudy 10 - - - -
29/02:30am 15.6 NNE 11 14 1010.6 - 4.8 - Mostly cloudy 10 - - - -
29/02:00am 15.4 NE 9 12 1010.9 - 4.8 - Partly cloudy 10 - - - -
29/01:30am 15.1 NE 7 11 1011.5 - 4.8 - Partly cloudy 10 - - - -
29/01:00am 15.0 NE 8 11 1012.1 - 4.8 - Partly cloudy 10 - - - -
29/12:30am 15.0 NE 7 9 1012.8 - 4.8 - Cloudy 10 - - - -
29/12:00am 14.7 N 6 9 1013.8 - 4.2 - Partly cloudy 10 - - - -
 
Date/Time
CST
Temp

°C
Wind Pressure Rain
since 9am
mm
Weather Cloud Vis
km
Sea
Height
m
Swell
Dir
 
Speed
knots
Gust
knots
hPa Trend Height
m
Period
s
Dir
28/11:30pm 14.5 NE 4 6 1013.4 - 4.0 Recent precip. Cloudy 10 - - - -
28/11:00pm 14.3 E 3 5 1013.7 - 4.0 - Partly cloudy 10 - - - -
28/10:52pm 14.3 SSE 3 5 1014.1 - 4.0 - Partly cloudy 9 - - - -
28/10:40pm 14.3 WSW 4 6 1014.9 - 3.6 - Partly cloudy 6 - - - -
28/10:30pm 14.3 WNW 4 4 1015.3 - 2.8 - Partly cloudy 10 - - - -
28/10:00pm 14.4 ENE 6 9 1014.5 - 2.8 - Cloudy 10 - - - -
28/09:30pm 14.5 E 6 9 1014.3 - 2.8 - Cloudy 10 - - - -
28/09:00pm 14.6 ENE 7 11 1015.2 - 2.4 - Partly cloudy 10 - - - -

Other Formats:

Comma delimited format used in spreadsheet applications
http://www.bom.gov.au/fwo/IDS60701/IDS60701.94828.axf

JavaScript Object Notation format (JSON) in row-major order
http://www.bom.gov.au/fwo/IDS60701/IDS60701.94828.json